Time;durP1;ratioP1;P1;durP2;ratioP2;P2;SDS_P1;SDS_P2;PMS_P1;PMS_P2;Temp;Humidity;BMP_temperature;BMP_pressure;BME280_temperature;BME280_humidity;BME280_pressure;Samples;Min_cycle;Max_cycle;Signal;HPM_P1;HPM_P2
2022/05/22 00:00:20;;;;;;;29.83;11.30;;;;;;;;;;5048488;28;20187;-75
2022/05/22 00:02:46;;;;;;;29.17;11.43;;;;;;;;;;5029350;28;20199;-77
2022/05/22 00:05:15;;;;;;;26.05;11.63;;;;;;;;;;5034847;28;20257;-78
2022/05/22 00:07:42;;;;;;;30.20;10.40;;;;;;;;;;5035740;28;20199;-76
2022/05/22 00:10:08;;;;;;;22.38;10.68;;;;;;;;;;5051641;28;20191;-73
2022/05/22 00:12:34;;;;;;;27.58;9.98;;;;;;;;;;5051818;28;20187;-76
2022/05/22 00:15:00;;;;;;;25.73;10.32;;;;;;;;;;5032659;28;20184;-75
2022/05/22 00:17:26;;;;;;;23.40;10.25;;;;;;;;;;5049371;28;20202;-75
2022/05/22 00:19:52;;;;;;;23.23;11.63;;;;;;;;;;5051177;28;20191;-76
2022/05/22 01:42:33;;;;;;;26.70;8.57;;;;;;;;;;5127606;27;20689;-76
2022/05/22 01:45:01;;;;;;;27.73;10.07;;;;;;;;;;5125881;27;20688;-75
2022/05/22 01:47:27;;;;;;;26.83;10.25;;;;;;;;;;5128091;27;20752;-75
2022/05/22 01:49:55;;;;;;;22.88;9.77;;;;;;;;;;5152135;27;20546;-74
2022/05/22 01:52:22;;;;;;;17.38;9.18;;;;;;;;;;5107433;28;20536;-74
2022/05/22 01:54:48;;;;;;;24.00;9.77;;;;;;;;;;5134462;27;20285;-74
2022/05/22 01:57:14;;;;;;;26.58;9.73;;;;;;;;;;5131276;27;20233;-76
2022/05/22 01:59:41;;;;;;;29.80;9.30;;;;;;;;;;5122126;27;20185;-78
2022/05/22 02:02:19;;;;;;;27.27;9.05;;;;;;;;;;5129286;27;20322;-77
2022/05/22 02:04:45;;;;;;;22.40;9.70;;;;;;;;;;5137130;27;20229;-74
2022/05/22 02:09:58;;;;;;;25.60;9.90;;;;;;;;;;5136997;27;20651;-75
2022/05/22 02:12:26;;;;;;;23.25;9.38;;;;;;;;;;5116795;27;20641;-74
2022/05/22 02:14:53;;;;;;;28.05;9.65;;;;;;;;;;5134555;27;20184;-74
2022/05/22 02:17:19;;;;;;;20.25;9.73;;;;;;;;;;5132927;27;20177;-74
2022/05/22 02:19:50;;;;;;;22.00;9.07;;;;;;;;;;5129067;27;20546;-75
2022/05/22 02:22:31;;;;;;;25.13;9.32;;;;;;;;;;5127312;27;20760;-76
2022/05/22 02:24:57;;;;;;;25.33;9.20;;;;;;;;;;5126313;27;20541;-75
2022/05/22 02:27:23;;;;;;;22.38;9.05;;;;;;;;;;5131089;27;20237;-75
2022/05/22 02:29:49;;;;;;;18.65;9.30;;;;;;;;;;5128554;27;20236;-74
2022/05/22 02:32:15;;;;;;;24.15;9.55;;;;;;;;;;5136239;27;20180;-76
2022/05/22 02:34:41;;;;;;;22.50;9.18;;;;;;;;;;5131132;27;20509;-74
2022/05/22 02:37:08;;;;;;;20.85;8.40;;;;;;;;;;5134781;27;20529;-77
2022/05/22 02:39:34;;;;;;;22.02;8.68;;;;;;;;;;5125849;27;20191;-76
2022/05/22 02:42:17;;;;;;;20.70;8.85;;;;;;;;;;5134123;27;20290;-77
2022/05/22 02:44:43;;;;;;;21.88;9.55;;;;;;;;;;5114160;27;20184;-77
2022/05/22 02:47:09;;;;;;;23.50;9.48;;;;;;;;;;5146433;27;20263;-76
2022/05/22 02:49:36;;;;;;;20.80;9.73;;;;;;;;;;5134819;27;20181;-77
2022/05/22 02:52:02;;;;;;;19.58;9.77;;;;;;;;;;5127390;27;20187;-74
2022/05/22 02:54:28;;;;;;;22.00;9.30;;;;;;;;;;5111859;27;20557;-75
2022/05/22 02:56:58;;;;;;;19.33;9.25;;;;;;;;;;5114929;27;20177;-74
2022/05/22 02:59:36;;;;;;;24.23;9.07;;;;;;;;;;5106215;28;20188;-74
2022/05/22 03:02:10;;;;;;;21.80;9.50;;;;;;;;;;5112802;27;20266;-77
2022/05/22 03:04:37;;;;;;;29.83;10.25;;;;;;;;;;5131853;27;20173;-77
2022/05/22 03:07:07;;;;;;;21.98;9.60;;;;;;;;;;5115773;27;20181;-77
2022/05/22 03:09:33;;;;;;;20.92;9.50;;;;;;;;;;5122694;27;20185;-75
2022/05/22 03:12:05;;;;;;;23.33;10.15;;;;;;;;;;5114253;27;20575;-75
2022/05/22 03:14:31;;;;;;;19.77;10.55;;;;;;;;;;5120029;27;20593;-76
2022/05/22 03:16:57;;;;;;;20.63;9.85;;;;;;;;;;5119374;27;20204;-74
2022/05/22 03:19:36;;;;;;;28.52;10.73;;;;;;;;;;5119818;27;20200;-75
2022/05/22 03:22:03;;;;;;;23.92;10.48;;;;;;;;;;5115529;27;20284;-75
2022/05/22 03:24:31;;;;;;;24.52;10.70;;;;;;;;;;5123844;27;20284;-78
2022/05/22 03:26:59;;;;;;;22.08;10.30;;;;;;;;;;5111692;27;20242;-76
2022/05/22 03:29:25;;;;;;;26.83;10.70;;;;;;;;;;5123544;27;20241;-74
2022/05/22 03:31:55;;;;;;;24.90;10.63;;;;;;;;;;5122138;27;20810;-75
2022/05/22 03:34:21;;;;;;;23.98;10.88;;;;;;;;;;5120542;27;20621;-76
2022/05/22 03:36:51;;;;;;;25.08;11.35;;;;;;;;;;5097944;27;20184;-73
2022/05/22 03:39:18;;;;;;;18.75;10.48;;;;;;;;;;5130461;27;20521;-78
2022/05/22 03:41:45;;;;;;;22.52;10.00;;;;;;;;;;5100808;27;20635;-76
2022/05/22 03:44:13;;;;;;;20.73;10.50;;;;;;;;;;5105827;28;20184;-76
2022/05/22 03:46:45;;;;;;;21.50;9.80;;;;;;;;;;5118941;27;20203;-76
2022/05/22 03:49:12;;;;;;;18.83;9.90;;;;;;;;;;5107148;27;20262;-74
2022/05/22 03:51:42;;;;;;;22.00;10.75;;;;;;;;;;5124638;27;20616;-76
2022/05/22 03:54:12;;;;;;;22.92;11.20;;;;;;;;;;5121371;27;20229;-76
2022/05/22 03:56:44;;;;;;;23.75;10.65;;;;;;;;;;5107952;28;20185;-74
2022/05/22 03:59:19;;;;;;;18.65;10.85;;;;;;;;;;5122807;27;20180;-77
2022/05/22 04:01:45;;;;;;;19.45;10.30;;;;;;;;;;5105474;28;20258;-75
2022/05/22 04:04:11;;;;;;;23.80;10.38;;;;;;;;;;5106954;28;20272;-74
2022/05/22 04:06:38;;;;;;;18.98;10.25;;;;;;;;;;5111302;27;20297;-74
2022/05/22 04:09:04;;;;;;;25.05;11.50;;;;;;;;;;5126469;27;20177;-77
2022/05/22 04:11:55;;;;;;;22.60;10.75;;;;;;;;;;5114596;27;20192;-77
2022/05/22 04:14:22;;;;;;;21.38;11.25;;;;;;;;;;5099013;28;20181;-75
2022/05/22 04:17:00;;;;;;;23.23;10.55;;;;;;;;;;5125126;27;20238;-78
2022/05/22 04:19:27;;;;;;;19.27;10.55;;;;;;;;;;5111516;27;20185;-75
2022/05/22 04:21:53;;;;;;;20.38;10.98;;;;;;;;;;5100400;27;20622;-79
2022/05/22 04:27:12;;;;;;;26.63;10.82;;;;;;;;;;5116894;27;20306;-77
2022/05/22 04:29:39;;;;;;;26.17;10.55;;;;;;;;;;5098762;27;20177;-76
2022/05/22 04:32:05;;;;;;;21.92;9.98;;;;;;;;;;5110051;27;20645;-76
2022/05/22 04:34:41;;;;;;;21.83;11.30;;;;;;;;;;5124582;27;20188;-75
2022/05/22 04:37:10;;;;;;;22.90;11.43;;;;;;;;;;5117054;27;20185;-76
2022/05/22 04:39:41;;;;;;;26.55;11.40;;;;;;;;;;5115498;27;20188;-79
2022/05/22 04:42:07;;;;;;;22.10;11.02;;;;;;;;;;5112866;27;20221;-77
2022/05/22 04:44:34;;;;;;;26.40;11.07;;;;;;;;;;5116799;27;20261;-76
2022/05/22 04:47:35;;;;;;;23.80;11.73;;;;;;;;;;5077376;27;20192;-78
2022/05/22 04:50:18;;;;;;;27.73;11.95;;;;;;;;;;5114754;27;20172;-75
2022/05/22 04:53:04;;;;;;;22.05;11.75;;;;;;;;;;5119007;27;20195;-77
2022/05/22 04:55:42;;;;;;;27.85;11.65;;;;;;;;;;5116512;27;20179;-79
2022/05/22 04:58:12;;;;;;;26.20;11.50;;;;;;;;;;5108501;27;20280;-74
2022/05/22 05:00:39;;;;;;;19.13;10.38;;;;;;;;;;5117320;27;20691;-74
2022/05/22 05:03:09;;;;;;;23.42;12.25;;;;;;;;;;5107037;27;20188;-78
2022/05/22 05:05:36;;;;;;;20.98;11.10;;;;;;;;;;5136785;27;20218;-77
2022/05/22 05:08:02;;;;;;;24.02;11.63;;;;;;;;;;5111699;27;20181;-77
2022/05/22 05:10:40;;;;;;;27.75;12.45;;;;;;;;;;5106473;27;20666;-74
2022/05/22 05:13:32;;;;;;;25.23;12.60;;;;;;;;;;5101958;27;20196;-77
2022/05/22 05:16:04;;;;;;;22.30;12.30;;;;;;;;;;5095928;28;20192;-75
2022/05/22 05:18:36;;;;;;;25.10;12.00;;;;;;;;;;5123793;27;20759;-76
2022/05/22 05:21:06;;;;;;;27.85;13.10;;;;;;;;;;5116542;27;20203;-75
2022/05/22 05:23:33;;;;;;;21.08;12.98;;;;;;;;;;5127441;27;20188;-76
2022/05/22 05:26:06;;;;;;;25.55;13.15;;;;;;;;;;5110316;27;20181;-78
2022/05/22 05:28:34;;;;;;;29.27;13.43;;;;;;;;;;5097961;28;20543;-75
2022/05/22 05:31:00;;;;;;;25.20;13.95;;;;;;;;;;5111637;27;20188;-77
2022/05/22 05:33:27;;;;;;;31.02;14.15;;;;;;;;;;5108517;28;20192;-77
2022/05/22 05:36:12;;;;;;;30.33;14.55;;;;;;;;;;5120816;27;20195;-73
2022/05/22 05:38:59;;;;;;;28.52;13.88;;;;;;;;;;5117807;27;20188;-79
2022/05/22 05:41:48;;;;;;;31.75;14.00;;;;;;;;;;5109738;28;20598;-78
2022/05/22 05:44:17;;;;;;;27.98;13.00;;;;;;;;;;5112343;28;20177;-78
2022/05/22 05:46:58;;;;;;;31.00;13.07;;;;;;;;;;5110898;28;20181;-79
2022/05/22 05:49:31;;;;;;;28.92;12.65;;;;;;;;;;5101594;28;20177;-77
2022/05/22 05:52:17;;;;;;;25.58;12.38;;;;;;;;;;5111520;28;20192;-77
2022/05/22 05:54:51;;;;;;;29.50;11.43;;;;;;;;;;5130683;27;20181;-76
2022/05/22 05:57:38;;;;;;;24.52;10.98;;;;;;;;;;5115526;28;20239;-77
2022/05/22 06:00:07;;;;;;;25.65;10.75;;;;;;;;;;5120116;28;20190;-77
2022/05/22 06:02:41;;;;;;;21.80;10.15;;;;;;;;;;5112455;28;20216;-75
2022/05/22 06:05:08;;;;;;;18.58;9.57;;;;;;;;;;5113102;28;20288;-77
2022/05/22 06:07:34;;;;;;;25.45;9.45;;;;;;;;;;5107854;28;20669;-74
2022/05/22 06:10:00;;;;;;;21.15;7.95;;;;;;;;;;5114010;28;20660;-77
2022/05/22 06:12:43;;;;;;;20.77;7.60;;;;;;;;;;5115513;28;20181;-79
2022/05/22 06:15:10;;;;;;;19.58;7.82;;;;;;;;;;5130541;27;20199;-80
2022/05/22 06:17:39;;;;;;;18.38;7.22;;;;;;;;;;5120185;28;20208;-83
2022/05/22 06:20:08;;;;;;;20.48;7.50;;;;;;;;;;5102590;28;20181;-79
2022/05/22 06:22:46;;;;;;;15.50;6.65;;;;;;;;;;5115106;28;20195;-78
2022/05/22 06:25:30;;;;;;;18.25;6.60;;;;;;;;;;5109496;28;20254;-76
2022/05/22 06:28:21;;;;;;;18.67;6.43;;;;;;;;;;5119348;27;20211;-73
2022/05/22 06:31:06;;;;;;;21.05;6.00;;;;;;;;;;5121107;27;20639;-75
2022/05/22 06:33:53;;;;;;;18.58;5.00;;;;;;;;;;5113464;27;20200;-77
2022/05/22 06:36:42;;;;;;;16.27;4.03;;;;;;;;;;5073591;27;20281;-79
2022/05/22 06:42:14;;;;;;;9.55;3.13;;;;;;;;;;5117256;27;20229;-79
2022/05/22 06:44:52;;;;;;;15.38;3.55;;;;;;;;;;5107987;27;20252;-77
2022/05/22 06:47:38;;;;;;;10.20;2.83;;;;;;;;;;5116355;27;20231;-77
2022/05/22 06:50:24;;;;;;;12.27;2.78;;;;;;;;;;5121542;27;20188;-79
2022/05/22 06:53:12;;;;;;;10.32;2.40;;;;;;;;;;5108516;27;20181;-79
2022/05/22 06:55:56;;;;;;;11.60;2.60;;;;;;;;;;5115495;27;20590;-78
2022/05/22 06:58:45;;;;;;;10.23;2.75;;;;;;;;;;5089820;27;20188;-78
2022/05/22 07:01:31;;;;;;;15.73;2.88;;;;;;;;;;5120721;27;20368;-74
2022/05/22 07:04:20;;;;;;;16.90;3.72;;;;;;;;;;5119221;27;20559;-76
2022/05/22 07:07:06;;;;;;;10.10;3.28;;;;;;;;;;5117850;27;20181;-78
2022/05/22 07:09:53;;;;;;;13.02;3.17;;;;;;;;;;5117908;27;20184;-76
2022/05/22 07:12:24;;;;;;;9.55;3.00;;;;;;;;;;5115356;27;20184;-75
2022/05/22 07:15:07;;;;;;;13.95;3.40;;;;;;;;;;5122086;27;20173;-76
2022/05/22 07:17:42;;;;;;;11.00;3.42;;;;;;;;;;5114479;27;20631;-75
2022/05/22 07:20:41;;;;;;;10.63;3.85;;;;;;;;;;5089381;28;20635;-72
2022/05/22 07:23:40;;;;;;;12.80;4.15;;;;;;;;;;5093030;27;20683;-77
2022/05/22 07:26:30;;;;;;;11.50;4.32;;;;;;;;;;5116223;27;20182;-75
2022/05/22 07:29:14;;;;;;;9.48;4.07;;;;;;;;;;5117849;27;20191;-72
2022/05/22 07:32:04;;;;;;;12.65;4.38;;;;;;;;;;5077599;27;20862;-72
2022/05/22 07:34:55;;;;;;;13.88;4.72;;;;;;;;;;5113351;27;20637;-75
2022/05/22 07:37:40;;;;;;;14.90;4.57;;;;;;;;;;5113792;27;20187;-73
2022/05/22 07:40:32;;;;;;;12.57;4.43;;;;;;;;;;5119626;27;20191;-73
2022/05/22 07:43:14;;;;;;;14.30;4.38;;;;;;;;;;5117956;27;20185;-75
2022/05/22 07:46:06;;;;;;;15.32;4.47;;;;;;;;;;5122609;27;20211;-76
2022/05/22 07:48:44;;;;;;;12.32;4.45;;;;;;;;;;5115258;27;20196;-75
2022/05/22 07:51:33;;;;;;;16.00;4.88;;;;;;;;;;5117102;27;20721;-73
2022/05/22 07:54:11;;;;;;;10.50;4.07;;;;;;;;;;5104322;27;20191;-75
2022/05/22 07:56:56;;;;;;;12.90;4.38;;;;;;;;;;5120759;27;20227;-74
2022/05/22 07:59:54;;;;;;;12.35;4.25;;;;;;;;;;5077728;27;20196;-74
2022/05/22 08:02:40;;;;;;;11.88;3.60;;;;;;;;;;5117587;27;20248;-73
2022/05/22 08:05:08;;;;;;;16.00;4.50;;;;;;;;;;5112482;27;20272;-75
2022/05/22 08:07:41;;;;;;;14.38;4.72;;;;;;;;;;5114720;27;20240;-73
2022/05/22 08:10:33;;;;;;;17.42;4.65;;;;;;;;;;5105929;27;20711;-74
2022/05/22 08:13:06;;;;;;;12.73;4.03;;;;;;;;;;5113284;27;20320;-75
2022/05/22 08:15:34;;;;;;;12.60;4.32;;;;;;;;;;5117434;27;20180;-73
2022/05/22 08:18:18;;;;;;;10.52;3.08;;;;;;;;;;5115723;27;20190;-74
2022/05/22 08:20:44;;;;;;;11.82;3.70;;;;;;;;;;5115608;27;20209;-76
2022/05/22 08:23:21;;;;;;;13.13;3.80;;;;;;;;;;5127349;27;20193;-74
2022/05/22 08:25:59;;;;;;;14.07;4.25;;;;;;;;;;5098839;27;20200;-76
2022/05/22 08:28:27;;;;;;;11.55;4.13;;;;;;;;;;5114246;27;20275;-76
2022/05/22 08:30:53;;;;;;;16.30;5.47;;;;;;;;;;5131816;27;20228;-74
2022/05/22 08:33:20;;;;;;;12.43;4.57;;;;;;;;;;5111498;27;20186;-75
2022/05/22 08:35:46;;;;;;;15.15;4.15;;;;;;;;;;5114813;27;20265;-74
2022/05/22 08:38:13;;;;;;;11.75;4.40;;;;;;;;;;5111038;27;20784;-76
2022/05/22 08:40:43;;;;;;;11.02;3.25;;;;;;;;;;5114421;27;20184;-73
2022/05/22 08:43:14;;;;;;;7.00;2.75;;;;;;;;;;5110195;27;20184;-75
2022/05/22 08:45:51;;;;;;;9.98;3.13;;;;;;;;;;5117720;27;20181;-74
2022/05/22 08:48:23;;;;;;;11.85;2.83;;;;;;;;;;5115250;27;20181;-73
2022/05/22 08:50:50;;;;;;;10.48;3.17;;;;;;;;;;5112624;27;20277;-73
2022/05/22 08:53:35;;;;;;;11.75;3.83;;;;;;;;;;5114691;27;20187;-73
2022/05/22 08:59:12;;;;;;;9.60;2.95;;;;;;;;;;5114531;27;20279;-74
2022/05/22 09:01:51;;;;;;;11.63;3.30;;;;;;;;;;5112751;27;21184;-72
2022/05/22 09:04:30;;;;;;;7.07;2.65;;;;;;;;;;5113399;27;20184;-75
2022/05/22 09:07:12;;;;;;;10.75;3.75;;;;;;;;;;5117026;27;20176;-74
2022/05/22 09:09:39;;;;;;;5.30;2.40;;;;;;;;;;5113248;27;20552;-73
2022/05/22 09:12:25;;;;;;;6.63;2.63;;;;;;;;;;5117124;27;20181;-72
2022/05/22 09:14:59;;;;;;;9.80;2.30;;;;;;;;;;5111504;27;20184;-73
2022/05/22 09:17:28;;;;;;;9.05;3.22;;;;;;;;;;5115637;27;20197;-77
2022/05/22 09:20:00;;;;;;;10.25;3.33;;;;;;;;;;5115158;27;20192;-74
2022/05/22 09:22:36;;;;;;;9.70;2.80;;;;;;;;;;5122684;27;20208;-73
2022/05/22 09:25:02;;;;;;;9.55;2.70;;;;;;;;;;5112203;27;20649;-76
2022/05/22 09:27:43;;;;;;;12.35;2.85;;;;;;;;;;5115804;27;20187;-74
2022/05/22 09:30:31;;;;;;;8.18;2.70;;;;;;;;;;5128529;27;20185;-77
2022/05/22 09:33:09;;;;;;;6.85;2.53;;;;;;;;;;5114009;28;20653;-74
2022/05/22 09:35:45;;;;;;;9.15;3.20;;;;;;;;;;5107666;28;20229;-74
2022/05/22 09:38:14;;;;;;;10.02;3.30;;;;;;;;;;5111129;27;20192;-74
2022/05/22 09:40:42;;;;;;;7.97;2.58;;;;;;;;;;5116518;28;20221;-74
2022/05/22 09:43:14;;;;;;;8.70;2.45;;;;;;;;;;5095099;28;20192;-71
2022/05/22 09:45:40;;;;;;;9.65;2.78;;;;;;;;;;5120114;28;20181;-74
2022/05/22 09:48:06;;;;;;;13.07;2.50;;;;;;;;;;5114173;28;20178;-72
2022/05/22 09:50:35;;;;;;;8.77;3.40;;;;;;;;;;5114228;28;20180;-73
2022/05/22 09:53:04;;;;;;;8.98;3.10;;;;;;;;;;5113591;28;20185;-73
2022/05/22 09:55:46;;;;;;;12.05;3.53;;;;;;;;;;5117872;28;20184;-74
2022/05/22 09:58:45;;;;;;;11.00;3.22;;;;;;;;;;5104748;28;20671;-76
2022/05/22 10:01:15;;;;;;;9.02;2.63;;;;;;;;;;5059080;27;20690;-71
2022/05/22 10:03:53;;;;;;;7.63;2.70;;;;;;;;;;5112925;27;20177;-74
2022/05/22 10:06:19;;;;;;;10.00;2.70;;;;;;;;;;5117275;27;20185;-74
2022/05/22 10:09:04;;;;;;;9.73;2.83;;;;;;;;;;5114436;27;20190;-75
2022/05/22 10:11:49;;;;;;;9.75;3.13;;;;;;;;;;5113095;27;20315;-74
2022/05/22 10:14:15;;;;;;;9.98;2.83;;;;;;;;;;5111968;27;20186;-72
2022/05/22 10:17:07;;;;;;;12.45;3.25;;;;;;;;;;5119273;27;20250;-75
2022/05/22 10:19:42;;;;;;;9.93;2.83;;;;;;;;;;5112922;27;20814;-72
2022/05/22 10:22:29;;;;;;;11.48;3.13;;;;;;;;;;5114744;27;20196;-76
2022/05/22 10:25:15;;;;;;;6.93;2.55;;;;;;;;;;5113894;27;20262;-73
2022/05/22 10:27:47;;;;;;;11.07;2.80;;;;;;;;;;5116317;27;20188;-75
2022/05/22 10:30:22;;;;;;;9.23;2.60;;;;;;;;;;5113945;27;20177;-75
2022/05/22 10:32:52;;;;;;;7.72;2.30;;;;;;;;;;5117719;27;20657;-74
2022/05/22 10:35:33;;;;;;;7.70;3.00;;;;;;;;;;5114344;27;20241;-75
2022/05/22 10:38:06;;;;;;;11.73;3.35;;;;;;;;;;5114620;27;20185;-73
2022/05/22 10:43:32;;;;;;;10.88;3.83;;;;;;;;;;5090112;28;20205;-74
2022/05/22 10:45:58;;;;;;;12.35;3.50;;;;;;;;;;5119232;27;20213;-72
2022/05/22 10:48:28;;;;;;;8.18;3.10;;;;;;;;;;5114575;27;20605;-73
2022/05/22 10:51:12;;;;;;;9.75;3.08;;;;;;;;;;5121218;27;20552;-74
2022/05/22 10:53:49;;;;;;;8.27;3.08;;;;;;;;;;5118135;27;20291;-76
2022/05/22 10:56:15;;;;;;;9.65;3.00;;;;;;;;;;5122484;27;20180;-72
2022/05/22 10:58:51;;;;;;;9.30;3.10;;;;;;;;;;5112503;27;20739;-73
2022/05/22 11:01:18;;;;;;;10.00;3.30;;;;;;;;;;5123084;27;20336;-76
2022/05/22 11:03:44;;;;;;;8.38;2.63;;;;;;;;;;5115460;27;20198;-75
2022/05/22 11:06:22;;;;;;;6.38;2.28;;;;;;;;;;5113757;27;20193;-74
2022/05/22 11:08:52;;;;;;;13.15;3.85;;;;;;;;;;5113753;27;20660;-72
2022/05/22 11:11:24;;;;;;;8.52;2.50;;;;;;;;;;5120985;27;20189;-72
2022/05/22 11:13:51;;;;;;;9.30;2.60;;;;;;;;;;5111452;27;20218;-73
2022/05/22 11:16:19;;;;;;;9.40;3.40;;;;;;;;;;5111310;27;20653;-74
2022/05/22 11:18:46;;;;;;;10.25;2.40;;;;;;;;;;5115237;27;20185;-70
2022/05/22 11:21:32;;;;;;;9.93;2.65;;;;;;;;;;5114676;27;20688;-71
2022/05/22 11:24:01;;;;;;;8.40;2.42;;;;;;;;;;5125815;27;20181;-71
2022/05/22 11:26:29;;;;;;;9.07;2.90;;;;;;;;;;5107297;27;20207;-70
2022/05/22 11:29:05;;;;;;;10.15;2.72;;;;;;;;;;5107958;27;20205;-70
2022/05/22 11:31:41;;;;;;;7.75;2.95;;;;;;;;;;5111469;27;20220;-71
2022/05/22 11:34:26;;;;;;;12.75;3.53;;;;;;;;;;5108015;27;20201;-69
2022/05/22 11:36:55;;;;;;;11.13;2.90;;;;;;;;;;5109023;27;20195;-77
2022/05/22 11:39:27;;;;;;;9.95;3.20;;;;;;;;;;5111787;27;20617;-75
2022/05/22 11:41:56;;;;;;;6.70;3.05;;;;;;;;;;5099227;28;20327;-75
2022/05/22 11:44:34;;;;;;;10.73;3.20;;;;;;;;;;5111721;27;20269;-76
2022/05/22 11:47:19;;;;;;;8.52;2.97;;;;;;;;;;5107050;28;20196;-71
2022/05/22 11:49:54;;;;;;;8.52;3.38;;;;;;;;;;5108847;28;20185;-70
2022/05/22 11:55:11;;;;;;;11.80;4.25;;;;;;;;;;5108491;27;20193;-71
2022/05/22 11:57:47;;;;;;;9.20;3.40;;;;;;;;;;5111425;28;20193;-73
2022/05/22 12:00:19;;;;;;;10.75;3.20;;;;;;;;;;5109535;27;20818;-70
2022/05/22 12:02:52;;;;;;;10.80;3.25;;;;;;;;;;5117893;27;20597;-71
2022/05/22 12:05:22;;;;;;;10.80;3.45;;;;;;;;;;5104672;28;20180;-74
2022/05/22 12:07:57;;;;;;;9.13;3.30;;;;;;;;;;5103807;27;20310;-72
2022/05/22 12:10:30;;;;;;;11.40;3.63;;;;;;;;;;5129479;27;20611;-70
2022/05/22 12:13:10;;;;;;;13.63;3.55;;;;;;;;;;5111793;27;20182;-73
2022/05/22 12:15:45;;;;;;;10.82;3.53;;;;;;;;;;5111897;27;20551;-75
2022/05/22 12:18:30;;;;;;;9.88;3.30;;;;;;;;;;5108897;28;20188;-75
2022/05/22 12:21:03;;;;;;;6.40;2.67;;;;;;;;;;5107687;27;20253;-77
2022/05/22 12:23:32;;;;;;;12.45;3.40;;;;;;;;;;5111475;27;20238;-75
2022/05/22 12:26:00;;;;;;;10.05;3.67;;;;;;;;;;5110002;27;20238;-73
2022/05/22 12:28:36;;;;;;;8.18;3.05;;;;;;;;;;5117003;27;20208;-75
2022/05/22 12:31:07;;;;;;;9.13;2.90;;;;;;;;;;5119356;27;20218;-77
2022/05/22 12:33:34;;;;;;;10.10;3.53;;;;;;;;;;5113385;27;20246;-76
2022/05/22 12:36:01;;;;;;;7.78;2.92;;;;;;;;;;5112953;27;20539;-75
2022/05/22 12:38:27;;;;;;;9.57;3.25;;;;;;;;;;5110418;27;20193;-73
2022/05/22 12:40:58;;;;;;;7.38;3.22;;;;;;;;;;5118210;27;20312;-71
2022/05/22 12:43:25;;;;;;;7.90;3.35;;;;;;;;;;5112541;27;20212;-70
2022/05/22 12:45:57;;;;;;;8.73;3.05;;;;;;;;;;5107767;28;20185;-72
2022/05/22 12:48:28;;;;;;;7.53;3.10;;;;;;;;;;5109283;27;20205;-70
2022/05/22 12:51:13;;;;;;;7.13;3.08;;;;;;;;;;5125658;27;20565;-69
2022/05/22 12:53:40;;;;;;;9.80;3.30;;;;;;;;;;5107857;27;20176;-74
2022/05/22 12:56:19;;;;;;;11.98;3.75;;;;;;;;;;5109663;27;20663;-75
2022/05/22 12:58:56;;;;;;;10.25;3.08;;;;;;;;;;5107287;28;20181;-76
2022/05/22 13:01:45;;;;;;;6.57;2.67;;;;;;;;;;5113789;27;20295;-77
2022/05/22 13:04:18;;;;;;;7.72;2.90;;;;;;;;;;5111092;27;20199;-74
2022/05/22 13:07:04;;;;;;;12.10;3.20;;;;;;;;;;5116633;27;20807;-76
2022/05/22 13:09:45;;;;;;;8.93;3.17;;;;;;;;;;5113653;27;20672;-75
2022/05/22 13:12:15;;;;;;;9.30;3.20;;;;;;;;;;5116253;27;20184;-75
2022/05/22 13:14:41;;;;;;;7.97;3.63;;;;;;;;;;5121066;27;20201;-77
2022/05/22 13:17:12;;;;;;;8.40;3.30;;;;;;;;;;5121365;27;20180;-77
2022/05/22 13:19:50;;;;;;;7.88;3.10;;;;;;;;;;5110541;27;20196;-75
2022/05/22 13:22:25;;;;;;;16.35;3.65;;;;;;;;;;5093627;27;20216;-74
2022/05/22 13:24:51;;;;;;;10.25;3.72;;;;;;;;;;5120128;27;20224;-76
2022/05/22 13:27:22;;;;;;;10.80;3.90;;;;;;;;;;5117314;27;20204;-75
2022/05/22 13:29:51;;;;;;;11.27;4.00;;;;;;;;;;5105762;28;20252;-74
2022/05/22 13:32:43;;;;;;;9.35;4.03;;;;;;;;;;5117604;27;20196;-75
2022/05/22 13:35:21;;;;;;;12.48;4.65;;;;;;;;;;5114665;27;20193;-75
2022/05/22 13:37:53;;;;;;;8.73;3.97;;;;;;;;;;5109293;27;20199;-73
2022/05/22 13:40:39;;;;;;;14.75;4.50;;;;;;;;;;5110292;27;20776;-76
2022/05/22 13:43:20;;;;;;;9.80;3.90;;;;;;;;;;5105549;28;20205;-75
2022/05/22 13:46:05;;;;;;;8.50;3.30;;;;;;;;;;5107107;28;20217;-75
2022/05/22 13:48:50;;;;;;;10.82;3.60;;;;;;;;;;5117678;28;20196;-73
2022/05/22 13:54:15;;;;;;;9.18;4.65;;;;;;;;;;5109686;28;20276;-75
2022/05/22 13:56:50;;;;;;;11.68;4.53;;;;;;;;;;5116858;28;20180;-74
2022/05/22 13:59:25;;;;;;;9.93;4.20;;;;;;;;;;5106941;28;20191;-75
2022/05/22 14:01:51;;;;;;;11.07;3.85;;;;;;;;;;5112932;28;20283;-73
2022/05/22 14:04:18;;;;;;;9.85;4.13;;;;;;;;;;5113816;28;20185;-75
2022/05/22 14:06:44;;;;;;;8.55;3.40;;;;;;;;;;5110149;28;20271;-75
2022/05/22 14:09:17;;;;;;;8.80;3.30;;;;;;;;;;5114854;28;20208;-74
2022/05/22 14:11:49;;;;;;;10.60;3.63;;;;;;;;;;5113662;28;20197;-75
2022/05/22 14:14:25;;;;;;;10.48;4.50;;;;;;;;;;5118829;28;20256;-74
2022/05/22 14:16:54;;;;;;;9.93;4.10;;;;;;;;;;5117751;28;20187;-74
2022/05/22 14:19:28;;;;;;;12.75;3.83;;;;;;;;;;5116062;28;20193;-75
2022/05/22 14:21:54;;;;;;;10.95;4.07;;;;;;;;;;5108254;28;20296;-75
2022/05/22 14:27:10;;;;;;;6.75;3.17;;;;;;;;;;5107664;28;20185;-74
2022/05/22 14:29:36;;;;;;;6.75;2.80;;;;;;;;;;5109556;28;20180;-73
2022/05/22 14:32:03;;;;;;;8.25;2.50;;;;;;;;;;5105336;28;20177;-73
2022/05/22 14:34:29;;;;;;;9.57;3.60;;;;;;;;;;5108665;28;20196;-71
2022/05/22 14:36:58;;;;;;;10.68;4.03;;;;;;;;;;5107686;28;20747;-70
2022/05/22 14:39:25;;;;;;;9.93;3.80;;;;;;;;;;5112004;28;20200;-72
2022/05/22 14:41:51;;;;;;;7.32;3.80;;;;;;;;;;5110862;28;20266;-70
2022/05/22 14:44:30;;;;;;;8.20;3.70;;;;;;;;;;5114961;28;20258;-68
2022/05/22 14:46:58;;;;;;;8.23;3.50;;;;;;;;;;5102967;28;20182;-70
2022/05/22 14:49:35;;;;;;;11.13;4.10;;;;;;;;;;5124493;27;20193;-72
2022/05/22 14:52:05;;;;;;;13.82;4.72;;;;;;;;;;5106807;27;20267;-72
2022/05/22 14:54:36;;;;;;;12.07;5.25;;;;;;;;;;5114330;27;20680;-72
2022/05/22 14:57:14;;;;;;;8.05;4.07;;;;;;;;;;5109063;27;20193;-71
2022/05/22 14:59:50;;;;;;;13.52;4.53;;;;;;;;;;5109799;27;20554;-70
2022/05/22 15:02:27;;;;;;;9.95;5.35;;;;;;;;;;5107840;27;20733;-71
2022/05/22 15:04:53;;;;;;;14.10;4.93;;;;;;;;;;5108467;28;20203;-72
2022/05/22 15:07:21;;;;;;;8.85;4.40;;;;;;;;;;5109743;28;20177;-71
2022/05/22 15:10:07;;;;;;;10.18;5.30;;;;;;;;;;5112520;27;20207;-73
2022/05/22 15:12:37;;;;;;;14.75;5.50;;;;;;;;;;5111408;27;20200;-71
2022/05/22 15:15:04;;;;;;;12.82;5.38;;;;;;;;;;5122896;27;20263;-74
2022/05/22 15:17:31;;;;;;;12.95;6.03;;;;;;;;;;5108518;28;20181;-73
2022/05/22 15:20:05;;;;;;;13.60;5.50;;;;;;;;;;5114761;27;20185;-73
2022/05/22 15:25:30;;;;;;;10.27;5.20;;;;;;;;;;5114403;27;20195;-73
2022/05/22 15:28:01;;;;;;;11.73;5.43;;;;;;;;;;5109004;28;20184;-75
2022/05/22 15:30:29;;;;;;;12.00;5.15;;;;;;;;;;5119908;27;20185;-72
2022/05/22 15:33:03;;;;;;;11.40;4.80;;;;;;;;;;5114046;27;20543;-74
2022/05/22 15:35:29;;;;;;;11.57;4.78;;;;;;;;;;5119650;27;20664;-74
2022/05/22 15:37:56;;;;;;;11.00;4.97;;;;;;;;;;5111999;27;20215;-74
2022/05/22 15:40:22;;;;;;;11.68;5.10;;;;;;;;;;5109336;27;20181;-72
2022/05/22 15:43:01;;;;;;;13.73;5.80;;;;;;;;;;5111207;27;20224;-73
2022/05/22 15:45:29;;;;;;;10.45;5.70;;;;;;;;;;5113498;27;20177;-74
2022/05/22 15:47:58;;;;;;;11.13;5.00;;;;;;;;;;5113131;27;20176;-73
2022/05/22 15:53:09;;;;;;;9.30;4.63;;;;;;;;;;5112051;27;20242;-75
2022/05/22 15:55:39;;;;;;;10.68;5.55;;;;;;;;;;5122706;27;20188;-70
2022/05/22 15:58:05;;;;;;;11.43;5.10;;;;;;;;;;5117280;27;20193;-74
2022/05/22 16:00:32;;;;;;;11.93;5.00;;;;;;;;;;5122233;27;20183;-72
2022/05/22 16:02:59;;;;;;;11.40;5.05;;;;;;;;;;5111441;27;20209;-72
2022/05/22 16:05:26;;;;;;;11.60;5.25;;;;;;;;;;5120913;27;20704;-74
2022/05/22 16:07:53;;;;;;;12.80;5.07;;;;;;;;;;5115833;27;20186;-72
2022/05/22 16:10:20;;;;;;;16.45;5.40;;;;;;;;;;5109870;28;20219;-73
2022/05/22 16:12:47;;;;;;;10.10;4.60;;;;;;;;;;5109146;28;20192;-74
2022/05/22 16:15:14;;;;;;;10.13;5.47;;;;;;;;;;5111277;27;20196;-75
2022/05/22 16:17:50;;;;;;;11.10;5.10;;;;;;;;;;5118146;27;20290;-74
2022/05/22 16:20:16;;;;;;;11.30;4.65;;;;;;;;;;5108948;28;20513;-74
2022/05/22 16:22:42;;;;;;;13.15;5.53;;;;;;;;;;5106473;27;20196;-71
2022/05/22 16:25:12;;;;;;;8.00;4.35;;;;;;;;;;5108869;27;20275;-71
2022/05/22 16:27:38;;;;;;;9.75;4.45;;;;;;;;;;5108840;28;20224;-71
2022/05/22 16:30:04;;;;;;;7.97;3.47;;;;;;;;;;5109053;28;20219;-72
2022/05/22 16:32:31;;;;;;;10.25;4.10;;;;;;;;;;5112901;27;20189;-72
2022/05/22 16:34:58;;;;;;;11.85;4.65;;;;;;;;;;5113645;27;20202;-73
2022/05/22 16:37:24;;;;;;;9.50;4.20;;;;;;;;;;5110461;27;20241;-72
2022/05/22 16:39:50;;;;;;;11.18;4.22;;;;;;;;;;5106908;27;20180;-72
2022/05/22 16:42:16;;;;;;;7.82;4.15;;;;;;;;;;5114375;27;20228;-70
2022/05/22 16:44:42;;;;;;;9.90;4.50;;;;;;;;;;5122191;27;20180;-73
2022/05/22 16:53:04;;;;;;;11.10;4.32;;;;;;;;;;5122255;27;20242;-74
2022/05/22 16:55:44;;;;;;;9.23;4.03;;;;;;;;;;5109345;28;20267;-74
2022/05/22 16:58:12;;;;;;;11.32;4.35;;;;;;;;;;5117503;27;20191;-72
2022/05/22 17:00:39;;;;;;;11.27;4.28;;;;;;;;;;5109889;27;20188;-73